Time;durP1;ratioP1;P1;durP2;ratioP2;P2;SDS_P1;SDS_P2;PMS_P1;PMS_P2;Temp;Humidity;BMP_temperature;BMP_pressure;BME280_temperature;BME280_humidity;BME280_pressure;Samples;Min_cycle;Max_cycle;Signal;HPM_P1;HPM_P2
2023/04/16 00:01:53;;;;;;;3.15;1.50;;;;;;;10.75;66.14;94107.19;5141987;27;20233;-73
2023/04/16 00:04:22;;;;;;;5.35;1.95;;;;;;;10.47;66.42;94074.63;5129737;27;20667;-72
2023/04/16 00:06:48;;;;;;;5.20;1.85;;;;;;;10.58;66.38;94098.19;5138033;27;20196;-73
2023/04/16 00:09:15;;;;;;;9.05;2.25;;;;;;;10.51;66.59;94108.03;5136484;27;20197;-73
2023/04/16 00:11:42;;;;;;;5.22;1.73;;;;;;;10.53;66.00;94106.53;5141538;27;20376;-74
2023/04/16 00:14:09;;;;;;;4.60;2.28;;;;;;;10.44;66.25;94108.56;5131731;27;20201;-72
2023/04/16 00:16:37;;;;;;;3.35;2.10;;;;;;;10.34;66.92;94103.63;5140191;27;20197;-74
2023/04/16 00:19:04;;;;;;;5.22;1.67;;;;;;;10.22;67.35;94100.91;5128767;27;20239;-72
2023/04/16 00:21:32;;;;;;;2.67;1.40;;;;;;;10.27;67.59;94097.97;5139428;27;20219;-73
2023/04/16 00:23:59;;;;;;;3.88;1.30;;;;;;;10.30;66.13;94100.00;5133694;27;20291;-73
2023/04/16 00:26:25;;;;;;;3.20;1.20;;;;;;;10.25;66.17;94100.25;5140184;27;20200;-73
2023/04/16 00:28:52;;;;;;;1.85;1.10;;;;;;;10.18;66.53;94105.38;5137278;27;20193;-73
2023/04/16 00:31:26;;;;;;;3.55;1.38;;;;;;;10.05;67.15;94101.09;5131025;27;20261;-73
2023/04/16 00:33:53;;;;;;;5.22;2.42;;;;;;;9.85;68.51;94075.69;5133875;27;20222;-73
2023/04/16 00:36:20;;;;;;;6.03;1.90;;;;;;;9.87;69.54;94101.28;5138255;27;20209;-73
2023/04/16 00:38:49;;;;;;;5.00;1.73;;;;;;;9.70;70.47;94087.19;5143191;27;20247;-73
2023/04/16 00:41:15;;;;;;;4.63;2.10;;;;;;;9.68;71.62;94098.34;5129869;27;20209;-73
2023/04/16 00:43:42;;;;;;;5.57;2.10;;;;;;;9.62;72.04;94094.25;5135575;27;20207;-73
2023/04/16 00:46:09;;;;;;;4.68;2.25;;;;;;;9.54;72.18;94093.22;5150512;27;20204;-73
2023/04/16 00:48:38;;;;;;;4.53;1.65;;;;;;;9.54;71.08;94089.72;5136149;27;20651;-72
2023/04/16 00:51:06;;;;;;;4.82;1.50;;;;;;;9.47;71.35;94097.59;5136369;27;20197;-74
2023/04/16 00:53:34;;;;;;;3.13;1.55;;;;;;;9.45;71.08;94094.41;5143243;27;20232;-74
2023/04/16 00:56:03;;;;;;;2.58;1.60;;;;;;;9.51;70.53;94106.63;5143456;27;20714;-73
2023/04/16 00:58:30;;;;;;;4.63;1.58;;;;;;;9.51;70.88;94098.50;5137677;27;20210;-72
2023/04/16 01:00:57;;;;;;;3.75;1.55;;;;;;;9.46;70.89;94101.41;5136103;27;20582;-72
2023/04/16 01:03:29;;;;;;;2.03;1.55;;;;;;;9.48;70.58;94091.06;5142184;27;20562;-73
2023/04/16 01:05:57;;;;;;;6.57;1.60;;;;;;;9.39;71.03;94101.97;5143448;27;20197;-73
2023/04/16 01:08:23;;;;;;;3.83;1.50;;;;;;;9.25;71.60;94096.84;5129493;27;20205;-73
2023/04/16 01:10:50;;;;;;;3.85;1.52;;;;;;;9.32;71.54;94099.00;5132299;27;20225;-73
2023/04/16 01:13:18;;;;;;;4.10;2.03;;;;;;;9.31;71.13;94093.91;5149360;27;20216;-73
2023/04/16 01:15:45;;;;;;;6.07;2.00;;;;;;;9.26;71.31;94086.81;5133265;27;20240;-73
2023/04/16 01:18:15;;;;;;;2.97;2.08;;;;;;;9.17;71.09;94078.78;5129583;28;20200;-73
2023/04/16 01:20:44;;;;;;;5.07;2.20;;;;;;;9.20;70.89;94099.75;5143075;27;20205;-73
2023/04/16 01:23:11;;;;;;;5.93;2.30;;;;;;;9.22;70.78;94096.72;5139719;27;20437;-73
2023/04/16 01:25:38;;;;;;;4.75;1.65;;;;;;;9.16;71.27;94096.13;5135714;27;20750;-73
2023/04/16 01:28:05;;;;;;;4.00;2.30;;;;;;;9.16;71.23;94093.41;5139149;27;20616;-73
2023/04/16 01:30:32;;;;;;;4.57;2.67;;;;;;;9.15;71.23;94097.25;5138134;27;20546;-73
2023/04/16 01:32:59;;;;;;;6.43;2.28;;;;;;;9.18;71.33;94093.09;5142422;27;20706;-73
2023/04/16 01:35:26;;;;;;;3.15;2.10;;;;;;;9.06;71.64;94087.63;5146658;27;20203;-73
2023/04/16 01:37:54;;;;;;;4.13;1.92;;;;;;;8.96;71.42;94083.44;5144542;27;20199;-73
2023/04/16 01:40:21;;;;;;;4.03;1.83;;;;;;;8.83;71.31;94084.47;5139999;27;20204;-73
2023/04/16 01:42:48;;;;;;;4.32;2.10;;;;;;;8.90;71.19;94079.34;5141813;27;20197;-73
2023/04/16 01:45:15;;;;;;;2.40;1.60;;;;;;;8.85;71.36;94088.44;5146946;27;20208;-72
2023/04/16 01:47:42;;;;;;;5.53;2.10;;;;;;;8.73;70.75;94044.38;5144477;27;20268;-72
2023/04/16 01:50:09;;;;;;;5.85;2.05;;;;;;;8.98;70.93;94073.09;5140419;27;20203;-72
2023/04/16 01:52:36;;;;;;;4.22;1.90;;;;;;;8.98;71.27;94073.09;5141637;27;20231;-72
2023/04/16 01:55:05;;;;;;;5.53;1.90;;;;;;;9.04;70.35;94074.44;5147599;27;20205;-73
2023/04/16 01:57:32;;;;;;;5.57;2.38;;;;;;;8.82;71.50;94077.50;5145702;27;20706;-74
2023/04/16 01:59:59;;;;;;;5.70;2.42;;;;;;;8.66;72.31;94061.09;5140046;27;20491;-74
2023/04/16 02:02:27;;;;;;;3.65;1.73;;;;;;;8.86;71.86;94067.63;5141212;27;20274;-72
2023/04/16 02:04:55;;;;;;;6.97;2.35;;;;;;;8.86;71.71;94078.44;5147267;27;20208;-73
2023/04/16 02:07:22;;;;;;;3.75;2.55;;;;;;;8.88;71.41;94076.97;5146687;27;20629;-73
2023/04/16 02:09:50;;;;;;;4.22;2.10;;;;;;;8.78;70.72;94054.97;5139839;27;20202;-73
2023/04/16 02:12:18;;;;;;;4.40;2.20;;;;;;;8.96;71.04;94080.72;5140283;27;20224;-73
2023/04/16 02:14:45;;;;;;;7.85;2.40;;;;;;;8.89;71.28;94078.53;5145089;27;20204;-74
2023/04/16 02:17:12;;;;;;;4.50;2.25;;;;;;;8.95;71.52;94081.84;5133988;27;20201;-74
2023/04/16 02:19:39;;;;;;;5.40;2.05;;;;;;;8.94;71.67;94074.06;5144870;27;20540;-73
2023/04/16 02:22:06;;;;;;;5.93;2.38;;;;;;;9.10;71.46;94073.13;5132486;27;20211;-73
2023/04/16 02:24:32;;;;;;;4.97;1.60;;;;;;;9.08;71.73;94064.56;5140551;27;20200;-73
2023/04/16 02:26:59;;;;;;;3.15;1.98;;;;;;;9.05;71.89;94073.34;5139056;27;20197;-73
2023/04/16 02:29:27;;;;;;;5.85;1.98;;;;;;;8.97;72.84;94068.81;5148547;27;20315;-74
2023/04/16 02:31:54;;;;;;;10.05;2.50;;;;;;;9.00;72.65;94062.75;5137776;27;20204;-74
2023/04/16 02:34:21;;;;;;;5.05;2.25;;;;;;;8.86;71.81;94056.81;5141124;27;20521;-74
2023/04/16 02:36:48;;;;;;;3.72;1.80;;;;;;;8.93;71.18;94057.06;5138808;27;20663;-73
2023/04/16 02:39:15;;;;;;;6.90;1.88;;;;;;;8.99;69.46;94065.78;5144392;27;20200;-73
2023/04/16 02:41:41;;;;;;;2.58;1.40;;;;;;;9.10;68.59;94065.03;5132217;27;20292;-73
2023/04/16 02:44:08;;;;;;;1.58;1.02;;;;;;;8.74;68.79;94037.88;5141359;27;20212;-73
2023/04/16 02:46:36;;;;;;;5.30;1.60;;;;;;;8.72;68.75;94029.31;5138753;27;20214;-73
2023/04/16 02:49:03;;;;;;;3.45;1.20;;;;;;;8.70;67.99;94031.53;5144035;27;20201;-73
2023/04/16 02:51:32;;;;;;;2.85;1.27;;;;;;;8.86;67.30;94040.63;5145798;27;20211;-73
2023/04/16 02:53:58;;;;;;;8.00;1.48;;;;;;;8.85;67.16;94055.25;5132108;27;20228;-73
2023/04/16 02:56:25;;;;;;;4.50;1.88;;;;;;;8.86;67.65;94052.22;5145107;27;20205;-72
2023/04/16 02:58:52;;;;;;;1.85;1.20;;;;;;;8.85;66.96;94049.84;5142415;27;20204;-73
2023/04/16 03:01:19;;;;;;;6.03;1.50;;;;;;;8.82;67.63;94056.69;5138608;27;20311;-73
2023/04/16 03:03:47;;;;;;;3.88;1.60;;;;;;;8.74;66.77;94040.56;5141431;27;20208;-73
2023/04/16 03:06:14;;;;;;;4.30;1.30;;;;;;;8.82;66.66;94045.09;5131281;27;20208;-72
2023/04/16 03:08:41;;;;;;;1.80;1.23;;;;;;;8.80;67.16;94036.53;5142743;27;20200;-72
2023/04/16 03:11:08;;;;;;;2.38;1.40;;;;;;;8.78;67.26;94054.97;5133662;27;20243;-73
2023/04/16 03:13:35;;;;;;;6.47;1.23;;;;;;;8.63;67.21;94047.47;5131226;27;20217;-72
2023/04/16 03:16:02;;;;;;;4.15;1.20;;;;;;;8.71;67.49;94060.13;5144967;27;20588;-74
2023/04/16 03:18:28;;;;;;;3.20;1.45;;;;;;;8.68;67.42;94060.78;5142905;27;20287;-73
2023/04/16 03:20:56;;;;;;;3.22;1.20;;;;;;;8.72;67.45;94061.69;5138394;27;20207;-73
2023/04/16 03:23:23;;;;;;;2.65;1.25;;;;;;;8.69;67.49;94062.34;5139699;27;20203;-73
2023/04/16 03:25:52;;;;;;;3.08;1.20;;;;;;;8.62;67.88;94064.78;5145204;27;20204;-74
2023/04/16 03:28:18;;;;;;;1.52;1.10;;;;;;;8.61;68.03;94065.91;5144029;27;20203;-73
2023/04/16 03:30:51;;;;;;;1.63;1.25;;;;;;;8.61;68.15;94061.28;5138041;27;20207;-73
2023/04/16 03:33:17;;;;;;;2.08;1.30;;;;;;;8.68;67.59;94066.97;5138455;27;20281;-73
2023/04/16 03:35:44;;;;;;;4.10;1.27;;;;;;;8.68;68.48;94060.78;5131005;27;20292;-74
2023/04/16 03:38:13;;;;;;;2.05;1.38;;;;;;;8.75;68.55;94061.03;5131082;27;20205;-74
2023/04/16 03:40:39;;;;;;;2.05;1.20;;;;;;;8.89;67.99;94066.94;5130984;27;20205;-73
2023/04/16 03:43:06;;;;;;;2.75;1.27;;;;;;;8.86;68.25;94073.03;5131164;27;20192;-73
2023/04/16 03:45:33;;;;;;;2.80;1.35;;;;;;;9.00;68.18;94070.84;5130551;27;20201;-74
2023/04/16 03:48:00;;;;;;;3.65;1.50;;;;;;;9.10;68.29;94072.34;5144844;27;20209;-73
2023/04/16 03:50:27;;;;;;;2.10;1.42;;;;;;;9.02;68.90;94070.53;5138873;27;20207;-73
2023/04/16 03:52:54;;;;;;;4.20;1.70;;;;;;;8.97;69.27;94055.28;5137162;27;20228;-74
2023/04/16 03:55:22;;;;;;;7.47;1.95;;;;;;;9.10;69.05;94064.25;5142190;27;20231;-74
2023/04/16 03:57:49;;;;;;;4.30;1.98;;;;;;;9.18;69.46;94068.75;5144053;27;20204;-73
2023/04/16 04:00:15;;;;;;;3.55;2.00;;;;;;;9.05;69.96;94070.63;5139162;27;20256;-74
2023/04/16 04:02:42;;;;;;;3.67;1.65;;;;;;;9.14;70.13;94079.47;5137408;27;20216;-74
2023/04/16 04:05:09;;;;;;;6.53;2.08;;;;;;;9.30;69.92;94076.13;5142319;27;20203;-73
2023/04/16 04:07:36;;;;;;;5.82;1.95;;;;;;;9.56;69.28;94079.38;5144630;27;20192;-73
2023/04/16 04:10:03;;;;;;;5.28;1.90;;;;;;;9.60;68.69;94075.66;5130636;27;20576;-73
2023/04/16 04:12:32;;;;;;;2.97;2.10;;;;;;;9.84;67.94;94083.03;5130813;27;20193;-73
2023/04/16 04:14:58;;;;;;;4.25;1.65;;;;;;;9.92;67.34;94089.47;5130266;27;20225;-73
2023/04/16 04:17:25;;;;;;;4.53;2.15;;;;;;;9.72;66.87;94076.78;5144006;27;20291;-73
2023/04/16 04:19:52;;;;;;;4.32;1.80;;;;;;;9.97;66.55;94090.06;5130769;27;20225;-73
2023/04/16 04:22:19;;;;;;;8.02;1.98;;;;;;;9.87;65.91;94062.63;5133108;27;20207;-74
2023/04/16 04:24:46;;;;;;;4.50;1.80;;;;;;;10.24;65.76;94093.25;5140610;27;20209;-73
2023/04/16 04:27:13;;;;;;;3.90;2.15;;;;;;;10.30;66.73;94094.59;5147816;27;20294;-73
2023/04/16 04:29:41;;;;;;;4.78;2.00;;;;;;;10.43;65.62;94098.88;5140016;27;20240;-73
2023/04/16 04:32:08;;;;;;;3.08;1.70;;;;;;;10.34;65.67;94098.22;5143335;27;20204;-73
2023/04/16 04:34:35;;;;;;;3.70;1.85;;;;;;;10.34;65.81;94095.50;5129393;27;20243;-74
2023/04/16 04:37:01;;;;;;;3.25;2.10;;;;;;;10.36;65.45;94078.94;5134225;27;20558;-74
2023/04/16 04:39:28;;;;;;;8.27;2.60;;;;;;;10.46;65.99;94092.78;5138784;27;20201;-73
2023/04/16 04:41:55;;;;;;;5.07;2.22;;;;;;;10.51;65.26;94087.16;5143524;27;20211;-72
2023/04/16 04:44:22;;;;;;;5.70;2.05;;;;;;;10.68;64.98;94108.56;5130024;27;20220;-73
2023/04/16 04:46:50;;;;;;;5.78;2.35;;;;;;;10.61;66.51;94086.69;5143523;27;20201;-74
2023/04/16 04:49:17;;;;;;;4.10;1.77;;;;;;;10.73;67.77;94114.88;5129666;27;20254;-73
2023/04/16 04:51:44;;;;;;;4.93;3.22;;;;;;;10.75;67.48;94110.69;5134948;27;20286;-74
2023/04/16 04:54:11;;;;;;;8.95;3.70;;;;;;;10.64;66.73;94107.69;5137888;27;20239;-73
2023/04/16 04:56:38;;;;;;;9.40;2.35;;;;;;;10.48;66.36;94108.69;5130678;27;20193;-74
2023/04/16 04:59:04;;;;;;;13.40;2.70;;;;;;;10.64;65.59;94106.88;5139351;27;20279;-74
2023/04/16 05:01:31;;;;;;;5.80;3.20;;;;;;;10.60;65.16;94090.53;5138049;27;20273;-73
2023/04/16 05:04:00;;;;;;;3.22;2.42;;;;;;;10.43;66.01;94114.34;5140077;27;20197;-74
2023/04/16 05:06:27;;;;;;;5.32;2.10;;;;;;;10.15;66.38;94095.22;5138206;27;20249;-74
2023/04/16 05:08:53;;;;;;;4.13;2.03;;;;;;;10.16;66.65;94092.19;5137198;27;20608;-74
2023/04/16 05:11:21;;;;;;;7.25;2.15;;;;;;;10.16;66.80;94113.06;5137270;27;20240;-74
2023/04/16 05:13:47;;;;;;;4.50;2.30;;;;;;;10.10;66.60;94114.41;5136898;27;20247;-74
2023/04/16 05:16:15;;;;;;;3.92;2.30;;;;;;;9.85;67.36;94086.50;5136328;27;20200;-73
2023/04/16 05:18:42;;;;;;;3.28;2.13;;;;;;;9.97;67.39;94108.19;5139446;27;20197;-74
2023/04/16 05:21:10;;;;;;;7.88;2.58;;;;;;;9.99;67.46;94106.72;5137662;27;20196;-73
2023/04/16 05:23:37;;;;;;;6.45;3.83;;;;;;;10.12;66.91;94112.13;5143035;27;20192;-73
2023/04/16 05:26:04;;;;;;;12.25;4.68;;;;;;;10.40;66.18;94107.66;5139788;27;20216;-73
2023/04/16 05:28:31;;;;;;;5.25;2.30;;;;;;;10.62;64.98;94109.94;5138360;27;20236;-73
2023/04/16 05:30:58;;;;;;;4.82;2.38;;;;;;;10.94;65.97;94110.09;5138498;27;20220;-73
2023/04/16 05:33:25;;;;;;;5.05;2.72;;;;;;;11.24;65.84;94102.44;5136676;27;20213;-74
2023/04/16 05:35:52;;;;;;;4.93;2.22;;;;;;;11.44;63.62;94092.56;5136895;27;20201;-74
2023/04/16 05:38:20;;;;;;;4.07;2.20;;;;;;;11.59;61.07;94106.16;5139252;27;20191;-75
2023/04/16 05:40:47;;;;;;;3.00;1.98;;;;;;;11.73;60.70;94103.03;5138760;27;20197;-74
2023/04/16 05:43:14;;;;;;;4.47;2.85;;;;;;;11.55;61.05;94072.72;5139863;27;20698;-74
2023/04/16 05:45:41;;;;;;;4.93;2.65;;;;;;;11.95;61.19;94094.34;5135286;27;20203;-75
2023/04/16 05:48:08;;;;;;;6.30;1.70;;;;;;;11.93;59.50;94091.19;5144929;27;20192;-74
2023/04/16 05:50:40;;;;;;;7.65;2.58;;;;;;;11.72;59.80;94079.75;5142851;27;20192;-73
2023/04/16 05:53:08;;;;;;;6.07;2.60;;;;;;;11.69;59.66;94096.72;5135296;27;20261;-73
2023/04/16 05:55:36;;;;;;;4.35;2.15;;;;;;;12.02;58.81;94091.03;5136196;27;20566;-74
2023/04/16 05:58:04;;;;;;;3.33;1.75;;;;;;;12.01;58.80;94092.94;5137896;27;20204;-74
2023/04/16 06:00:31;;;;;;;4.20;2.45;;;;;;;11.93;59.17;94074.88;5135038;27;20220;-73
2023/04/16 06:02:58;;;;;;;4.20;1.95;;;;;;;12.05;58.92;94104.66;5132063;27;20569;-74
2023/04/16 06:05:25;;;;;;;6.25;3.28;;;;;;;12.37;58.53;94110.91;5129492;27;20571;-74
2023/04/16 06:07:52;;;;;;;4.55;2.58;;;;;;;12.79;57.45;94097.53;5137227;27;20221;-74
2023/04/16 06:10:21;;;;;;;6.47;2.13;;;;;;;12.95;56.86;94058.66;5149032;27;20231;-74
2023/04/16 06:12:52;;;;;;;9.50;2.63;;;;;;;13.81;55.84;94089.13;5144826;27;20290;-73
2023/04/16 06:15:19;;;;;;;4.03;2.35;;;;;;;14.21;54.26;94081.28;5139155;27;20220;-73
2023/04/16 06:17:46;;;;;;;6.03;2.47;;;;;;;14.84;52.97;94069.06;5139407;27;20666;-74
2023/04/16 06:20:13;;;;;;;8.35;2.85;;;;;;;14.96;51.54;94079.75;5142867;27;20245;-73
2023/04/16 06:22:40;;;;;;;5.32;3.13;;;;;;;14.77;52.14;94085.31;5141008;27;20185;-74
2023/04/16 06:25:07;;;;;;;5.57;3.05;;;;;;;14.05;54.69;94083.38;5143504;27;20571;-74
2023/04/16 06:27:34;;;;;;;6.47;2.70;;;;;;;13.44;56.04;94081.44;5140566;27;20197;-74
2023/04/16 06:30:02;;;;;;;6.80;3.22;;;;;;;13.73;55.05;94087.44;5139235;27;20307;-73
2023/04/16 06:32:30;;;;;;;4.90;3.13;;;;;;;13.90;54.74;94059.75;5140466;27;20682;-74
2023/04/16 06:34:57;;;;;;;7.10;3.33;;;;;;;14.83;53.86;94072.94;5142669;27;20220;-73
2023/04/16 06:37:24;;;;;;;7.00;4.40;;;;;;;15.81;50.59;94077.34;5136715;27;20212;-73
2023/04/16 06:39:51;;;;;;;9.30;4.25;;;;;;;17.00;48.14;94065.88;5139887;27;20628;-73
2023/04/16 06:42:18;;;;;;;6.47;3.30;;;;;;;17.53;46.02;94064.56;5135811;27;20204;-73
2023/04/16 06:44:44;;;;;;;7.45;3.83;;;;;;;18.09;44.63;94042.84;5142725;27;20272;-73
2023/04/16 06:47:13;;;;;;;7.25;3.92;;;;;;;17.20;45.84;94046.44;5142474;27;20189;-73
2023/04/16 06:49:39;;;;;;;6.35;3.60;;;;;;;17.44;45.31;94075.88;5140462;27;20582;-73
2023/04/16 06:52:07;;;;;;;6.32;3.40;;;;;;;16.16;46.80;94055.81;5134336;27;20193;-73
2023/04/16 06:54:34;;;;;;;11.30;3.83;;;;;;;16.20;47.86;94073.03;5144454;27;20228;-73
2023/04/16 06:57:01;;;;;;;3.35;3.00;;;;;;;16.12;47.86;94065.97;5142673;27;20590;-73
2023/04/16 06:59:27;;;;;;;6.53;3.67;;;;;;;16.65;46.94;94073.84;5137258;27;20201;-74
2023/04/16 07:01:54;;;;;;;5.22;3.42;;;;;;;17.00;46.38;94070.56;5139752;27;20633;-73
2023/04/16 07:04:23;;;;;;;9.50;4.22;;;;;;;15.94;48.23;94071.25;5148310;27;20209;-73
2023/04/16 07:06:50;;;;;;;6.20;3.30;;;;;;;15.21;50.02;94066.44;5139342;27;20196;-73
2023/04/16 07:09:17;;;;;;;6.32;3.67;;;;;;;15.97;48.97;94075.97;5137857;27;20652;-73
2023/04/16 07:11:44;;;;;;;10.27;4.05;;;;;;;15.82;49.98;94073.44;5137861;27;20273;-73
2023/04/16 07:14:11;;;;;;;9.73;4.57;;;;;;;15.99;49.13;94079.06;5134721;27;20233;-73
2023/04/16 07:16:38;;;;;;;7.25;3.75;;;;;;;16.87;48.30;94059.16;5140708;27;20253;-73
2023/04/16 07:19:05;;;;;;;7.88;3.85;;;;;;;17.41;45.61;94058.25;5140851;27;20230;-74
2023/04/16 07:21:34;;;;;;;7.03;4.15;;;;;;;17.56;44.94;94075.53;5136795;27;20796;-73
2023/04/16 07:24:01;;;;;;;10.30;3.95;;;;;;;17.09;45.72;94067.47;5143236;27;20276;-73
2023/04/16 07:26:27;;;;;;;8.18;4.47;;;;;;;16.73;46.52;94072.72;5142402;27;20207;-72
2023/04/16 07:28:54;;;;;;;6.85;4.18;;;;;;;16.75;46.47;94059.47;5140491;27;20196;-72
2023/04/16 07:31:21;;;;;;;7.60;4.80;;;;;;;16.83;46.50;94069.28;5136282;27;20205;-72
2023/04/16 07:33:48;;;;;;;7.78;3.97;;;;;;;17.49;45.10;94067.31;5136439;27;20656;-72
2023/04/16 07:36:15;;;;;;;8.70;4.03;;;;;;;17.75;44.20;94063.53;5140553;27;20698;-71
2023/04/16 07:38:43;;;;;;;10.73;4.90;;;;;;;18.15;44.16;94053.44;5132958;27;20201;-72
2023/04/16 07:41:10;;;;;;;12.55;4.45;;;;;;;17.46;44.78;94070.03;5136683;27;20651;-72
2023/04/16 07:43:37;;;;;;;10.35;4.80;;;;;;;16.68;46.67;94065.66;5141368;27;20205;-72
2023/04/16 07:46:03;;;;;;;7.95;4.55;;;;;;;16.84;46.44;94068.09;5133808;27;20832;-72
2023/04/16 07:48:30;;;;;;;9.43;4.53;;;;;;;17.43;45.60;94071.56;5132648;27;20216;-73
2023/04/16 07:50:58;;;;;;;7.60;4.10;;;;;;;17.05;45.77;94062.78;5138314;27;20201;-72
2023/04/16 07:53:24;;;;;;;7.65;4.32;;;;;;;17.32;45.22;94048.84;5143185;27;20237;-73
2023/04/16 07:55:53;;;;;;;12.35;4.55;;;;;;;17.58;44.62;94059.50;5140866;27;20530;-73
2023/04/16 07:58:19;;;;;;;5.18;3.60;;;;;;;17.37;45.65;94062.16;5135728;27;20204;-72
2023/04/16 08:00:46;;;;;;;8.23;3.80;;;;;;;17.77;45.17;94046.69;5139141;27;20221;-72
2023/04/16 08:03:14;;;;;;;6.07;3.50;;;;;;;17.64;45.06;94060.72;5144435;27;20205;-73
2023/04/16 08:05:41;;;;;;;6.22;2.92;;;;;;;18.17;43.98;94035.44;5142300;27;20535;-74
2023/04/16 08:08:08;;;;;;;6.07;3.15;;;;;;;19.21;42.90;94058.09;5131878;27;20205;-72
2023/04/16 08:10:35;;;;;;;6.35;3.38;;;;;;;18.11;44.02;94061.66;5142572;27;20437;-72
2023/04/16 08:13:03;;;;;;;9.27;3.20;;;;;;;18.77;43.27;94042.88;5138205;27;20196;-72
2023/04/16 08:15:31;;;;;;;6.07;3.38;;;;;;;18.82;42.64;94045.25;5136413;27;20239;-72
2023/04/16 08:17:58;;;;;;;5.50;3.22;;;;;;;19.02;42.23;94060.09;5138072;27;20200;-72
2023/04/16 08:20:25;;;;;;;7.20;3.55;;;;;;;17.71;44.78;94052.53;5137367;27;20380;-72
2023/04/16 08:22:53;;;;;;;5.47;3.50;;;;;;;17.76;45.48;94051.41;5142473;27;20262;-71
2023/04/16 08:25:21;;;;;;;4.75;2.70;;;;;;;17.73;44.90;94058.44;5144155;27;20249;-73
2023/04/16 08:27:48;;;;;;;5.20;2.70;;;;;;;18.15;44.81;94032.28;5139020;27;20207;-73
2023/04/16 08:30:16;;;;;;;5.95;2.83;;;;;;;18.22;43.90;94040.50;5136263;27;20201;-72
2023/04/16 08:32:43;;;;;;;5.40;3.45;;;;;;;18.48;43.53;94048.34;5141661;27;20197;-73
2023/04/16 08:35:10;;;;;;;8.75;3.22;;;;;;;19.28;42.96;94045.13;5129660;27;20235;-73
2023/04/16 08:37:37;;;;;;;3.92;2.90;;;;;;;19.30;42.01;94023.53;5139121;27;20203;-73
2023/04/16 08:40:04;;;;;;;6.53;3.00;;;;;;;19.67;41.28;94034.03;5136511;27;20287;-73
2023/04/16 08:42:35;;;;;;;6.30;2.50;;;;;;;20.05;40.46;94020.47;5140608;27;20599;-73
2023/04/16 08:45:07;;;;;;;7.10;3.05;;;;;;;19.96;40.23;94025.63;5129869;27;20664;-73
2023/04/16 08:47:36;;;;;;;7.47;3.22;;;;;;;20.24;39.75;94017.97;5140874;27;20255;-72
2023/04/16 08:50:04;;;;;;;5.53;2.60;;;;;;;20.44;39.35;94023.75;5136792;27;20299;-73
2023/04/16 08:52:32;;;;;;;7.07;2.78;;;;;;;20.76;39.25;94025.47;5138630;27;20204;-73
2023/04/16 08:55:05;;;;;;;4.85;2.47;;;;;;;20.85;39.68;94018.28;5143920;27;20224;-72
2023/04/16 08:57:39;;;;;;;6.57;2.60;;;;;;;20.96;39.13;94012.69;5129634;27;20243;-73
2023/04/16 09:00:08;;;;;;;4.93;2.35;;;;;;;20.26;40.02;94023.06;5136785;27;20219;-72
2023/04/16 09:02:37;;;;;;;6.15;2.38;;;;;;;19.64;40.62;94012.84;5135581;27;20237;-72
2023/04/16 09:05:07;;;;;;;7.70;3.10;;;;;;;19.65;42.15;94017.16;5129471;27;20209;-72
2023/04/16 09:07:34;;;;;;;7.05;2.53;;;;;;;19.30;41.56;94011.78;5143631;27;20253;-72
2023/04/16 09:10:01;;;;;;;5.18;2.45;;;;;;;19.58;41.16;94016.41;5138213;27;20306;-72
2023/04/16 09:12:32;;;;;;;6.40;2.65;;;;;;;19.41;41.33;94026.25;5134257;27;20204;-74
2023/04/16 09:15:01;;;;;;;3.40;2.20;;;;;;;18.95;42.55;94027.19;5129999;28;20224;-73
2023/04/16 09:17:30;;;;;;;4.15;2.20;;;;;;;19.08;41.97;94000.09;5143436;27;20274;-72
2023/04/16 09:19:58;;;;;;;7.82;2.25;;;;;;;18.86;42.92;94017.81;5139615;27;20196;-74
2023/04/16 09:22:25;;;;;;;4.18;2.17;;;;;;;18.13;44.32;94014.66;5135352;27;20192;-72
2023/04/16 09:24:52;;;;;;;3.22;2.28;;;;;;;17.77;45.37;93987.97;5138728;27;20207;-73
2023/04/16 09:27:19;;;;;;;3.38;2.20;;;;;;;17.79;45.04;93992.28;5128546;28;20200;-73
2023/04/16 09:29:46;;;;;;;6.13;2.55;;;;;;;17.98;44.79;94013.84;5133470;27;20197;-72
2023/04/16 09:32:13;;;;;;;4.90;2.20;;;;;;;18.86;43.15;94013.06;5143101;27;20280;-72
2023/04/16 09:35:05;;;;;;;5.95;2.00;;;;;;;18.83;43.38;94007.59;5140365;27;20224;-72
2023/04/16 09:37:32;;;;;;;4.82;2.17;;;;;;;19.30;41.96;94020.00;5113641;28;20211;-72
2023/04/16 09:40:00;;;;;;;4.88;2.30;;;;;;;18.29;43.13;94012.31;5143461;27;20200;-73
2023/04/16 09:42:28;;;;;;;2.97;2.00;;;;;;;18.11;43.55;94002.13;5137716;27;20200;-73
2023/04/16 09:44:55;;;;;;;4.50;2.00;;;;;;;17.65;45.54;94018.47;5134847;27;20201;-72
2023/04/16 09:47:23;;;;;;;5.38;2.17;;;;;;;17.65;44.82;94013.00;5129250;28;20205;-73
2023/04/16 09:49:50;;;;;;;5.65;1.77;;;;;;;17.66;45.22;94009.09;5142906;27;20619;-71
2023/04/16 09:52:20;;;;;;;4.20;1.83;;;;;;;18.52;43.63;93993.50;5138212;27;20626;-72
2023/04/16 09:54:48;;;;;;;4.40;1.70;;;;;;;19.25;41.62;94007.50;5139714;27;20223;-74
2023/04/16 09:57:19;;;;;;;4.22;1.60;;;;;;;18.88;41.76;93998.94;5143751;27;20212;-71
2023/04/16 09:59:47;;;;;;;4.57;2.10;;;;;;;18.72;42.56;93999.41;5132978;27;20233;-72
2023/04/16 10:02:13;;;;;;;4.00;1.90;;;;;;;19.19;42.79;93992.59;5144064;27;20650;-72
2023/04/16 10:04:46;;;;;;;3.05;1.92;;;;;;;19.69;40.70;93970.41;5138971;27;20658;-72
2023/04/16 10:07:13;;;;;;;3.88;1.80;;;;;;;20.13;40.36;93973.28;5141721;27;20581;-72
2023/04/16 10:09:41;;;;;;;4.25;1.95;;;;;;;19.97;41.14;93977.69;5146728;27;20209;-72
2023/04/16 10:12:09;;;;;;;4.82;1.80;;;;;;;19.68;40.61;93986.13;5143805;27;20639;-73
2023/04/16 10:14:35;;;;;;;7.63;2.00;;;;;;;19.61;40.31;93975.19;5138227;27;20204;-72
2023/04/16 10:17:03;;;;;;;4.57;1.90;;;;;;;20.03;40.54;93985.13;5138970;27;20589;-72
2023/04/16 10:19:31;;;;;;;2.90;1.70;;;;;;;20.34;38.10;93969.59;5139161;27;20196;-72
2023/04/16 10:21:58;;;;;;;4.43;1.90;;;;;;;20.18;38.45;93955.56;5138859;27;20698;-72
2023/04/16 10:24:25;;;;;;;5.80;2.28;;;;;;;20.29;39.77;93964.50;5139254;27;20264;-72
2023/04/16 10:26:55;;;;;;;2.95;1.90;;;;;;;20.26;40.06;93970.81;5138761;27;20250;-73
2023/04/16 10:29:22;;;;;;;5.20;1.92;;;;;;;19.93;39.57;93968.72;5148147;27;20796;-72
2023/04/16 10:31:50;;;;;;;5.20;2.25;;;;;;;19.31;40.44;93966.66;5138090;27;20566;-72
2023/04/16 10:34:18;;;;;;;7.05;2.67;;;;;;;18.50;42.54;93964.88;5140042;27;20192;-72
2023/04/16 10:36:48;;;;;;;4.25;2.20;;;;;;;18.72;41.99;93963.72;5138777;27;20233;-73
2023/04/16 10:39:19;;;;;;;4.88;2.42;;;;;;;19.12;41.25;93965.19;5143819;27;20200;-72
2023/04/16 10:41:46;;;;;;;5.43;2.40;;;;;;;19.78;40.24;93957.81;5145729;27;20189;-72
2023/04/16 10:44:17;;;;;;;4.78;2.40;;;;;;;19.99;39.66;93956.09;5141114;27;20652;-72
2023/04/16 10:46:48;;;;;;;7.93;2.85;;;;;;;20.69;39.17;93956.72;5135306;27;20204;-73
2023/04/16 10:49:16;;;;;;;3.92;2.28;;;;;;;21.62;37.55;93949.75;5132195;27;20216;-73
2023/04/16 10:51:52;;;;;;;5.80;2.30;;;;;;;21.50;38.17;93905.41;5145932;27;20205;-73
2023/04/16 10:54:21;;;;;;;4.53;2.13;;;;;;;21.26;37.46;93927.38;5144593;27;20192;-73
2023/04/16 10:56:49;;;;;;;4.45;2.08;;;;;;;21.69;38.25;93943.38;5138314;27;20231;-73
2023/04/16 10:59:20;;;;;;;3.47;1.90;;;;;;;21.47;36.26;93920.81;5139460;27;20295;-72
2023/04/16 11:01:48;;;;;;;7.00;2.22;;;;;;;21.28;36.79;93936.03;5131704;27;20205;-71
2023/04/16 11:04:34;;;;;;;5.65;1.85;;;;;;;21.40;36.89;93936.66;5145491;27;20627;-71
2023/04/16 11:07:15;;;;;;;4.80;1.75;;;;;;;21.42;36.64;93928.78;5141364;27;20219;-72
2023/04/16 11:09:53;;;;;;;4.07;2.30;;;;;;;21.35;36.63;93920.56;5138296;27;20219;-72
2023/04/16 11:12:21;;;;;;;4.07;1.95;;;;;;;21.45;36.98;93933.47;5139265;27;20235;-72
2023/04/16 11:14:51;;;;;;;3.95;2.05;;;;;;;21.24;37.73;93885.69;5143927;27;20205;-72
2023/04/16 11:17:19;;;;;;;4.65;1.90;;;;;;;19.98;38.68;93916.81;5133262;27;20208;-72
2023/04/16 11:19:46;;;;;;;4.40;2.10;;;;;;;19.16;40.48;93938.47;5143077;27;20535;-73
2023/04/16 11:22:16;;;;;;;4.53;2.05;;;;;;;19.88;39.62;93921.22;5145237;27;20207;-72
2023/04/16 11:24:43;;;;;;;4.10;2.30;;;;;;;20.16;39.05;93914.72;5140664;27;20193;-73
2023/04/16 11:27:12;;;;;;;4.53;2.20;;;;;;;20.77;38.35;93917.72;5138187;27;20219;-72
2023/04/16 11:29:39;;;;;;;7.80;2.10;;;;;;;20.73;38.18;93922.47;5146713;27;20203;-72
2023/04/16 11:32:07;;;;;;;5.45;2.40;;;;;;;21.30;37.67;93910.81;5134570;27;20197;-72
2023/04/16 11:34:34;;;;;;;4.18;2.10;;;;;;;20.95;37.53;93911.97;5142039;27;20295;-72
2023/04/16 11:37:01;;;;;;;5.15;2.17;;;;;;;20.62;38.25;93905.28;5137875;27;20227;-72
2023/04/16 11:39:28;;;;;;;3.80;2.20;;;;;;;20.18;38.59;93876.59;5141192;27;20286;-72